Time;durP1;ratioP1;P1;durP2;ratioP2;P2;SDS_P1;SDS_P2;PMS_P1;PMS_P2;Temp;Humidity;BMP_temperature;BMP_pressure;BME280_temperature;BME280_humidity;BME280_pressure;Samples;Min_cycle;Max_cycle;Signal;HPM_P1;HPM_P2
2022/09/07 00:01:08;;;;;;;;;;;;;;;21.64;69.63;100769.66;7284210;19;154085;-60
2022/09/07 00:03:34;;;;;;;;;;;;;;;21.64;69.33;100764.03;7291825;19;153238;-60
2022/09/07 00:06:06;;;;;;;;;;;;;;;21.64;69.82;100755.59;7278595;19;152379;-60
2022/09/07 00:08:32;;;;;;;;;;;;;;;21.64;69.49;100753.59;7279912;19;151772;-60
2022/09/07 00:11:00;;;;;;;;;;;;;;;21.65;69.62;100755.28;7281780;19;153134;-60
2022/09/07 00:13:28;;;;;;;;;;;;;;;21.68;69.99;100753.78;7283041;19;153639;-60
2022/09/07 00:15:55;;;;;;;;;;;;;;;21.66;70.05;100756.09;7284080;19;152628;-60
2022/09/07 00:18:22;;;;;;;;;;;;;;;21.67;69.52;100749.31;7283828;19;153995;-60
2022/09/07 00:21:03;;;;;;;;;;;;;;;21.67;69.67;100750.13;7278423;19;154153;-60
2022/09/07 00:23:30;;;;;;;;;;;;;;;21.66;69.64;100745.69;7283106;19;151825;-60
2022/09/07 00:26:01;;;;;;;;;;;;;;;21.68;69.94;100742.53;7286744;19;153439;-60
2022/09/07 00:28:30;;;;;;;;;;;;;;;21.68;69.88;100749.00;7279498;19;153423;-60
2022/09/07 00:31:00;;;;;;;;;;;;;;;21.67;69.92;100738.06;7278018;19;152530;-60
2022/09/07 00:33:27;;;;;;;;;;;;;;;21.65;70.13;100738.41;7281775;19;154044;-60
2022/09/07 00:35:54;;;;;;;;;;;;;;;21.66;70.20;100739.22;7283599;19;152431;-60
2022/09/07 00:38:21;;;;;;;;;;;;;;;21.67;70.08;100732.44;7283320;19;152555;-60
2022/09/07 00:40:48;;;;;;;;;;;;;;;21.69;69.84;100730.97;7279895;19;153790;-60
2022/09/07 00:43:36;;;;;;;;;;;;;;;21.67;70.56;100724.00;7282114;19;152521;-60
2022/09/07 00:46:04;;;;;;;;;;;;;;;21.68;71.07;100731.28;7280214;19;153056;-60
2022/09/07 00:48:54;;;;;;;;;;;;;;;21.70;70.74;100729.00;7287104;19;153657;-60
2022/09/07 00:51:24;;;;;;;;;;;;;;;21.70;70.37;100729.00;7278356;19;152209;-60
2022/09/07 00:53:58;;;;;;;;;;;;;;;21.70;70.50;100718.59;7281452;19;152514;-60
2022/09/07 00:56:27;;;;;;;;;;;;;;;21.71;70.71;100711.78;7280283;19;151824;-58
2022/09/07 00:58:55;;;;;;;;;;;;;;;21.70;71.07;100715.78;7282939;19;152645;-59
2022/09/07 01:01:22;;;;;;;;;;;;;;;21.72;71.17;100712.63;7281822;19;153694;-59
2022/09/07 01:03:51;;;;;;;;;;;;;;;21.72;71.35;100704.19;7282706;19;153136;-59
2022/09/07 01:06:20;;;;;;;;;;;;;;;21.73;71.27;100701.06;7277068;19;152205;-59
2022/09/07 01:08:48;;;;;;;;;;;;;;;21.72;71.13;100687.31;7278247;19;154372;-59
2022/09/07 01:11:19;;;;;;;;;;;;;;;21.71;71.25;100682.88;7287392;19;154500;-59
2022/09/07 01:13:47;;;;;;;;;;;;;;;21.72;71.57;100681.69;7280876;19;153407;-60
2022/09/07 01:16:28;;;;;;;;;;;;;;;21.74;71.32;100691.47;7281653;19;151955;-59
2022/09/07 01:18:59;;;;;;;;;;;;;;;21.72;71.80;100688.16;7284740;19;153856;-59
2022/09/07 01:21:47;;;;;;;;;;;;;;;21.72;71.43;100688.16;7287639;19;153244;-59
2022/09/07 01:24:32;;;;;;;;;;;;;;;21.74;72.10;100691.47;7288416;19;152026;-59
2022/09/07 01:27:17;;;;;;;;;;;;;;;21.72;71.62;100684.50;7282455;19;152943;-59
2022/09/07 01:30:03;;;;;;;;;;;;;;;21.73;72.55;100678.56;7287423;19;153955;-59
2022/09/07 01:32:32;;;;;;;;;;;;;;;21.74;71.88;100685.84;7296504;19;151660;-59
2022/09/07 01:35:02;;;;;;;;;;;;;;;21.74;71.83;100683.03;7286518;19;153254;-59
2022/09/07 01:37:32;;;;;;;;;;;;;;;21.73;72.43;100684.19;7287145;19;151972;-59
2022/09/07 01:40:06;;;;;;;;;;;;;;;21.74;71.75;100688.66;7285354;19;154308;-59
2022/09/07 01:42:39;;;;;;;;;;;;;;;21.73;72.53;100688.97;7278714;19;153631;-60
2022/09/07 01:45:11;;;;;;;;;;;;;;;21.74;73.11;100691.47;7287673;19;152447;-60
2022/09/07 01:47:40;;;;;;;;;;;;;;;21.74;72.42;100691.47;7285902;19;153110;-60
2022/09/07 01:50:18;;;;;;;;;;;;;;;21.75;72.56;100686.69;7285392;19;152604;-60
2022/09/07 01:52:45;;;;;;;;;;;;;;;21.77;72.61;100684.38;7287601;19;152588;-60
2022/09/07 01:55:15;;;;;;;;;;;;;;;21.79;72.72;100686.88;7291807;19;154764;-59
2022/09/07 01:57:44;;;;;;;;;;;;;;;21.78;73.13;100676.75;7284639;19;152495;-59
2022/09/07 02:00:17;;;;;;;;;;;;;;;21.74;73.86;100683.03;7285829;19;153525;-61
2022/09/07 02:03:03;;;;;;;;;;;;;;;21.70;73.58;100682.03;7283789;19;153834;-59
2022/09/07 02:05:43;;;;;;;;;;;;;;;21.74;73.03;100676.59;7281514;19;152073;-60
2022/09/07 02:08:23;;;;;;;;;;;;;;;21.73;72.71;100675.75;7285851;19;153451;-60
2022/09/07 02:10:53;;;;;;;;;;;;;;;21.73;72.95;100678.56;7281652;19;152930;-61
2022/09/07 02:13:19;;;;;;;;;;;;;;;21.74;72.86;100674.59;7286256;19;152563;-60
2022/09/07 02:15:57;;;;;;;;;;;;;;;21.76;72.86;100676.28;7286362;19;153509;-59
2022/09/07 02:18:26;;;;;;;;;;;;;;;21.77;73.04;100673.13;7293653;19;153961;-60
2022/09/07 02:20:55;;;;;;;;;;;;;;;21.76;73.25;100667.84;7286662;19;154666;-60
2022/09/07 02:23:28;;;;;;;;;;;;;;;21.74;73.39;100668.97;7285490;19;152849;-60
2022/09/07 02:26:01;;;;;;;;;;;;;;;21.76;73.08;100671.44;7283398;19;152879;-60
2022/09/07 02:28:29;;;;;;;;;;;;;;;21.78;73.45;100668.31;7283905;19;153317;-60
2022/09/07 02:30:56;;;;;;;;;;;;;;;21.78;73.50;100662.69;7282330;19;153933;-60
2022/09/07 02:33:23;;;;;;;;;;;;;;;21.78;73.59;100668.31;7286631;19;152460;-60
2022/09/07 02:35:50;;;;;;;;;;;;;;;21.78;73.54;100660.72;7286858;19;153714;-60
2022/09/07 02:38:17;;;;;;;;;;;;;;;21.78;73.63;100657.91;7285204;19;154268;-60
2022/09/07 02:40:48;;;;;;;;;;;;;;;21.78;73.59;100657.06;7293983;19;151893;-61
2022/09/07 02:43:15;;;;;;;;;;;;;;;21.78;73.41;100668.31;7283597;19;153698;-60
2022/09/07 02:45:56;;;;;;;;;;;;;;;21.76;74.39;100671.44;7286412;19;152383;-61
2022/09/07 02:48:43;;;;;;;;;;;;;;;21.74;74.15;100671.78;7284537;19;153270;-60
2022/09/07 02:51:16;;;;;;;;;;;;;;;21.74;74.22;100668.97;7283676;19;154035;-61
2022/09/07 02:54:16;;;;;;;;;;;;;;;21.77;74.65;100673.13;7286303;19;151847;-60
2022/09/07 02:56:56;;;;;;;;;;;;;;;21.78;74.26;100663.53;7280543;19;153543;-60
2022/09/07 02:59:25;;;;;;;;;;;;;;;21.75;74.47;100658.56;7285083;19;153308;-60
2022/09/07 03:02:00;;;;;;;;;;;;;;;21.78;73.71;100657.06;7285575;19;151905;-60
2022/09/07 03:04:29;;;;;;;;;;;;;;;21.77;74.16;100658.22;7291316;19;152245;-60
2022/09/07 03:07:01;;;;;;;;;;;;;;;21.76;74.08;100665.03;7285816;19;152215;-60
2022/09/07 03:09:30;;;;;;;;;;;;;;;21.77;74.22;100663.84;7282274;19;153020;-60
2022/09/07 03:12:01;;;;;;;;;;;;;;;21.77;74.13;100649.78;7280773;19;155062;-60
2022/09/07 03:14:32;;;;;;;;;;;;;;;21.77;74.65;100661.88;7284876;19;151729;-60
2022/09/07 03:16:59;;;;;;;;;;;;;;;21.74;74.63;100662.53;7283874;19;152472;-61
2022/09/07 03:19:26;;;;;;;;;;;;;;;21.75;74.63;100667.00;7284628;19;153968;-60
2022/09/07 03:21:52;;;;;;;;;;;;;;;21.72;75.61;100660.03;7284808;19;152263;-60
2022/09/07 03:24:21;;;;;;;;;;;;;;;21.77;75.73;100663.84;7286309;19;153687;-59
2022/09/07 03:26:50;;;;;;;;;;;;;;;21.76;75.20;100665.81;7286117;19;152544;-60
2022/09/07 03:29:17;;;;;;;;;;;;;;;21.78;75.34;100668.31;7284079;19;152555;-61
2022/09/07 03:31:44;;;;;;;;;;;;;;;21.78;75.78;100671.13;7283208;19;152601;-59
2022/09/07 03:34:13;;;;;;;;;;;;;;;21.78;75.57;100673.94;7285305;19;152594;-59
2022/09/07 03:36:40;;;;;;;;;;;;;;;21.77;76.45;100675.09;7284165;19;153664;-59
2022/09/07 03:39:08;;;;;;;;;;;;;;;21.77;76.34;100673.13;7283699;19;154382;-59
2022/09/07 03:41:35;;;;;;;;;;;;;;;21.78;76.36;100677.59;7281256;19;152466;-60
2022/09/07 03:44:05;;;;;;;;;;;;;;;21.80;76.57;100680.09;7284615;19;155033;-61
2022/09/07 03:46:33;;;;;;;;;;;;;;;21.81;77.00;100682.56;7291116;19;153896;-61
2022/09/07 03:48:59;;;;;;;;;;;;;;;21.80;76.79;100683.75;7283063;19;153560;-60
2022/09/07 03:51:26;;;;;;;;;;;;;;;21.80;76.91;100678.13;7279753;19;153517;-60
2022/09/07 03:53:53;;;;;;;;;;;;;;;21.80;76.44;100674.47;7284576;19;152474;-60
2022/09/07 03:56:21;;;;;;;;;;;;;;;21.81;76.83;100688.19;7281252;19;153185;-61
2022/09/07 03:58:48;;;;;;;;;;;;;;;21.84;77.35;100689.53;7282350;19;153134;-61
2022/09/07 04:01:20;;;;;;;;;;;;;;;21.82;77.53;100697.47;7283875;19;152392;-61
2022/09/07 04:03:47;;;;;;;;;;;;;;;21.81;77.04;100693.81;7284518;19;152773;-61
2022/09/07 04:06:14;;;;;;;;;;;;;;;21.78;77.16;100690.81;7278292;19;154190;-60
2022/09/07 04:08:41;;;;;;;;;;;;;;;21.80;77.25;100682.91;7291107;19;152091;-60
2022/09/07 04:11:12;;;;;;;;;;;;;;;21.78;77.18;100677.59;7279617;19;152594;-60
2022/09/07 04:13:42;;;;;;;;;;;;;;;21.76;77.79;100693.16;7282453;19;151959;-60
2022/09/07 04:16:29;;;;;;;;;;;;;;;21.80;77.14;100677.28;7283081;19;152052;-60
2022/09/07 04:18:57;;;;;;;;;;;;;;;21.80;76.94;100682.91;7282063;19;154215;-59
2022/09/07 04:21:29;;;;;;;;;;;;;;;21.78;77.01;100680.41;7281704;19;153006;-59
2022/09/07 04:23:57;;;;;;;;;;;;;;;21.79;76.87;100675.63;7284076;19;152824;-60
2022/09/07 04:26:25;;;;;;;;;;;;;;;21.76;77.84;100681.91;7278901;19;152427;-60
2022/09/07 04:28:53;;;;;;;;;;;;;;;21.77;77.59;100694.78;7280502;19;152239;-60
2022/09/07 04:31:20;;;;;;;;;;;;;;;21.76;77.50;100690.34;7288170;19;153456;-60
2022/09/07 04:33:48;;;;;;;;;;;;;;;21.78;76.92;100693.63;7282582;19;152606;-60
2022/09/07 04:36:16;;;;;;;;;;;;;;;21.73;77.40;100689.81;7281161;19;152663;-60
2022/09/07 04:38:42;;;;;;;;;;;;;;;21.74;77.70;100694.28;7281851;19;154659;-60
2022/09/07 04:41:11;;;;;;;;;;;;;;;21.77;77.73;100689.16;7280448;19;152016;-60
2022/09/07 04:43:39;;;;;;;;;;;;;;;21.73;77.80;100688.97;7281544;19;154105;-59
2022/09/07 04:46:07;;;;;;;;;;;;;;;21.78;76.98;100688.00;7279718;19;154017;-60
2022/09/07 04:48:34;;;;;;;;;;;;;;;21.78;77.19;100682.38;7281867;19;152935;-60
2022/09/07 04:51:07;;;;;;;;;;;;;;;21.78;77.07;100685.19;7281896;19;152902;-60
2022/09/07 04:53:35;;;;;;;;;;;;;;;21.77;77.55;100694.78;7291438;19;153658;-60
2022/09/07 04:56:04;;;;;;;;;;;;;;;21.78;77.83;100688.00;7286716;19;152732;-60
2022/09/07 04:58:44;;;;;;;;;;;;;;;21.77;77.47;100689.16;7287056;19;152797;-60
2022/09/07 05:01:28;;;;;;;;;;;;;;;21.79;77.41;100693.31;7286860;19;152099;-60
2022/09/07 05:04:00;;;;;;;;;;;;;;;21.76;77.36;100688.31;7289082;19;153382;-60
2022/09/07 05:06:27;;;;;;;;;;;;;;;21.74;77.38;100685.84;7287569;19;153227;-60
2022/09/07 05:08:54;;;;;;;;;;;;;;;21.75;78.02;100689.50;7287516;19;152362;-60
2022/09/07 05:11:25;;;;;;;;;;;;;;;21.74;77.77;100690.66;7283952;19;153089;-60
2022/09/07 05:13:58;;;;;;;;;;;;;;;21.71;78.22;100703.34;7286578;19;154267;-60
2022/09/07 05:16:25;;;;;;;;;;;;;;;21.73;77.60;100700.22;7296516;19;152479;-60
2022/09/07 05:18:55;;;;;;;;;;;;;;;21.71;77.71;100700.53;7288680;19;153760;-60
2022/09/07 05:21:23;;;;;;;;;;;;;;;21.72;77.49;100699.41;7287434;19;151697;-61
2022/09/07 05:23:50;;;;;;;;;;;;;;;21.74;77.38;100707.53;7289109;19;152733;-60
2022/09/07 05:26:18;;;;;;;;;;;;;;;21.74;77.44;100701.91;7281618;19;153969;-59
2022/09/07 05:28:45;;;;;;;;;;;;;;;21.72;77.50;100705.03;7288359;19;152254;-60
2022/09/07 05:31:13;;;;;;;;;;;;;;;21.72;76.47;100704.19;7288378;19;153261;-60
2022/09/07 05:34:00;;;;;;;;;;;;;;;21.72;76.63;100710.66;7285193;19;154176;-60
2022/09/07 05:36:46;;;;;;;;;;;;;;;21.72;76.43;100719.06;7294585;19;152194;-60
2022/09/07 05:39:13;;;;;;;;;;;;;;;21.72;75.84;100712.63;7286746;19;152208;-61
2022/09/07 05:41:40;;;;;;;;;;;;;;;21.71;76.62;100719.41;7284424;19;152359;-60
2022/09/07 05:44:06;;;;;;;;;;;;;;;21.73;76.45;100709.50;7287748;19;152715;-60
2022/09/07 05:46:53;;;;;;;;;;;;;;;21.71;77.02;100708.97;7283810;19;153196;-60
2022/09/07 05:49:20;;;;;;;;;;;;;;;21.71;76.09;100706.16;7287016;19;151854;-60
2022/09/07 05:51:47;;;;;;;;;;;;;;;21.71;76.90;100703.34;7287260;19;152793;-60
2022/09/07 05:54:13;;;;;;;;;;;;;;;21.73;75.89;100708.66;7286727;19;153470;-60
2022/09/07 05:56:40;;;;;;;;;;;;;;;21.72;75.53;100707.00;7284802;19;151997;-60
2022/09/07 05:59:07;;;;;;;;;;;;;;;21.72;75.65;100701.38;7292748;19;153688;-60
2022/09/07 06:01:38;;;;;;;;;;;;;;;21.71;76.16;100708.16;7288318;19;152623;-60
2022/09/07 06:04:10;;;;;;;;;;;;;;;21.71;75.87;100714.59;7286442;19;154912;-60
2022/09/07 06:06:39;;;;;;;;;;;;;;;21.71;76.04;100699.75;7285149;19;153463;-60
2022/09/07 06:09:06;;;;;;;;;;;;;;;21.69;76.22;100713.28;7285718;19;152577;-60
2022/09/07 06:11:35;;;;;;;;;;;;;;;21.69;75.78;100716.09;7283063;19;152216;-60
2022/09/07 06:14:13;;;;;;;;;;;;;;;21.70;75.92;100714.94;7285034;19;152326;-60
2022/09/07 06:16:46;;;;;;;;;;;;;;;21.72;76.12;100712.63;7285932;19;152385;-59
2022/09/07 06:19:15;;;;;;;;;;;;;;;21.72;77.00;100712.63;7287458;19;152450;-60
2022/09/07 06:21:42;;;;;;;;;;;;;;;21.73;77.24;100717.94;7293237;19;152966;-60
2022/09/07 06:24:09;;;;;;;;;;;;;;;21.74;77.85;100710.31;7284593;19;154203;-60
2022/09/07 06:26:45;;;;;;;;;;;;;;;21.75;76.42;100720.44;7282075;19;153948;-60
2022/09/07 06:29:26;;;;;;;;;;;;;;;21.74;76.46;100713.16;7285901;19;151732;-60
2022/09/07 06:31:53;;;;;;;;;;;;;;;21.72;77.07;100716.25;7239538;19;156347;-60
2022/09/07 06:34:40;;;;;;;;;;;;;;;21.73;76.32;100703.88;7277640;19;153983;-60
2022/09/07 06:37:07;;;;;;;;;;;;;;;21.70;76.18;100712.97;7284714;19;151965;-60
2022/09/07 06:39:35;;;;;;;;;;;;;;;21.73;74.91;100720.75;7281438;19;152551;-61
2022/09/07 06:42:03;;;;;;;;;;;;;;;21.68;75.65;100720.88;7279763;19;152331;-61
2022/09/07 06:44:30;;;;;;;;;;;;;;;21.71;75.50;100713.78;7292271;19;152704;-60
2022/09/07 06:46:56;;;;;;;;;;;;;;;21.69;75.19;100714.09;7281452;19;153971;-61
2022/09/07 06:49:30;;;;;;;;;;;;;;;21.70;74.94;100715.78;7283978;19;152996;-60
2022/09/07 06:51:57;;;;;;;;;;;;;;;21.69;75.33;100711.28;7284300;19;152608;-60
2022/09/07 06:54:24;;;;;;;;;;;;;;;21.71;75.01;100717.41;7282476;19;153712;-60
2022/09/07 06:57:24;;;;;;;;;;;;;;;21.65;74.73;100718.72;7280855;19;153342;-60
2022/09/07 06:59:50;;;;;;;;;;;;;;;21.64;75.06;100719.03;7284415;19;153056;-60
2022/09/07 07:02:17;;;;;;;;;;;;;;;21.70;73.87;100724.22;7282319;19;153294;-60
2022/09/07 07:04:57;;;;;;;;;;;;;;;21.61;74.31;100723.34;7281800;19;152509;-61
2022/09/07 07:07:33;;;;;;;;;;;;;;;21.63;74.34;100723.81;7289882;19;152637;-61
2022/09/07 07:10:20;;;;;;;;;;;;;;;21.54;74.56;100722.94;7282413;19;155498;-61
2022/09/07 07:13:04;;;;;;;;;;;;;;;21.68;72.57;100720.03;7279407;19;153617;-61
2022/09/07 07:15:31;;;;;;;;;;;;;;;21.57;72.98;100718.66;7280777;19;155302;-61
2022/09/07 07:18:01;;;;;;;;;;;;;;;21.51;72.98;100715.16;7283244;19;151925;-61
2022/09/07 07:20:46;;;;;;;;;;;;;;;21.59;72.62;100719.16;7281862;19;153794;-61
2022/09/07 07:23:13;;;;;;;;;;;;;;;21.49;72.65;100720.25;7281320;19;153623;-61
2022/09/07 07:25:39;;;;;;;;;;;;;;;21.46;72.84;100729.34;7283418;19;154111;-61
2022/09/07 07:28:09;;;;;;;;;;;;;;;21.36;73.21;100723.97;7279851;19;153313;-61
2022/09/07 07:30:57;;;;;;;;;;;;;;;21.46;72.67;100708.81;7285831;19;153053;-61
2022/09/07 07:33:30;;;;;;;;;;;;;;;21.47;72.27;100711.31;7285311;19;153550;-59
2022/09/07 07:36:14;;;;;;;;;;;;;;;21.46;72.72;100715.28;7283366;19;153565;-59
2022/09/07 07:38:41;;;;;;;;;;;;;;;21.37;73.68;100717.19;7282999;19;152177;-60
2022/09/07 07:41:25;;;;;;;;;;;;;;;21.51;72.57;100715.16;7282524;19;152337;-60
2022/09/07 07:44:16;;;;;;;;;;;;;;;21.43;73.32;100713.13;7281984;19;152702;-59
2022/09/07 07:46:45;;;;;;;;;;;;;;;21.44;73.41;100713.97;7283830;19;152899;-60
2022/09/07 07:49:12;;;;;;;;;;;;;;;21.44;73.32;100720.38;7284519;19;153592;-60
2022/09/07 07:51:39;;;;;;;;;;;;;;;21.33;72.98;100727.44;7286839;19;153035;-60
2022/09/07 07:54:25;;;;;;;;;;;;;;;21.27;73.39;100725.88;7283526;19;152453;-61
2022/09/07 07:56:52;;;;;;;;;;;;;;;21.22;74.04;100735.28;7279685;19;154074;-60
2022/09/07 07:59:25;;;;;;;;;;;;;;;21.27;73.83;100740.75;7282960;19;152377;-60
2022/09/07 08:01:52;;;;;;;;;;;;;;;21.18;74.12;100739.03;7283588;19;153956;-59
2022/09/07 08:04:18;;;;;;;;;;;;;;;21.18;74.56;100739.88;7282459;19;153374;-60
2022/09/07 08:06:45;;;;;;;;;;;;;;;21.15;74.96;100745.28;7283177;19;151901;-60
2022/09/07 08:09:12;;;;;;;;;;;;;;;21.12;74.91;100735.47;7283167;19;153973;-60
2022/09/07 08:11:39;;;;;;;;;;;;;;;21.17;74.25;100734.56;7277591;19;153274;-60
2022/09/07 08:14:07;;;;;;;;;;;;;;;21.21;74.44;100735.59;7291411;19;152546;-59
2022/09/07 08:16:35;;;;;;;;;;;;;;;21.14;74.37;100729.56;7280951;19;154147;-60
2022/09/07 08:19:01;;;;;;;;;;;;;;;21.14;74.28;100727.59;7283866;19;152382;-60
2022/09/07 08:21:30;;;;;;;;;;;;;;;21.06;74.47;100736.75;7283718;19;153067;-59
2022/09/07 08:24:03;;;;;;;;;;;;;;;21.06;74.33;100731.16;7281461;19;152370;-59
2022/09/07 08:26:46;;;;;;;;;;;;;;;21.12;74.53;100731.88;7280130;19;153967;-60
2022/09/07 08:29:14;;;;;;;;;;;;;;;21.04;74.54;100732.59;7282862;19;153627;-60
2022/09/07 08:31:45;;;;;;;;;;;;;;;21.08;74.06;100742.03;7279508;19;154670;-60
2022/09/07 08:34:22;;;;;;;;;;;;;;;21.02;74.46;100737.72;7283543;19;152052;-60
2022/09/07 08:36:48;;;;;;;;;;;;;;;20.95;75.00;100740.94;7289776;19;153243;-60
2022/09/07 08:39:15;;;;;;;;;;;;;;;20.96;75.53;100738.97;7282167;19;152171;-60
2022/09/07 08:42:00;;;;;;;;;;;;;;;21.02;74.97;100741.34;7279737;19;154104;-59
2022/09/07 08:44:37;;;;;;;;;;;;;;;21.00;74.84;100743.63;7281985;19;153822;-60
2022/09/07 08:47:09;;;;;;;;;;;;;;;20.97;75.06;100735.03;7280580;19;152469;-60
2022/09/07 08:49:42;;;;;;;;;;;;;;;21.01;74.70;100741.66;7282070;19;153178;-60
2022/09/07 08:52:16;;;;;;;;;;;;;;;20.98;74.41;100733.88;7281420;19;153004;-60
2022/09/07 08:55:06;;;;;;;;;;;;;;;20.94;75.07;100739.28;7281081;19;152490;-59
2022/09/07 08:57:36;;;;;;;;;;;;;;;20.76;75.97;100737.44;7279579;19;152890;-60
2022/09/07 09:00:04;;;;;;;;;;;;;;;20.83;75.88;100730.28;7288203;19;154221;-60
2022/09/07 09:02:31;;;;;;;;;;;;;;;20.83;76.15;100730.28;7282296;19;154574;-60
2022/09/07 09:05:04;;;;;;;;;;;;;;;20.67;76.54;100723.31;7279136;19;153521;-60
2022/09/07 09:07:46;;;;;;;;;;;;;;;20.68;76.15;100722.19;7281325;19;152368;-60
2022/09/07 09:10:19;;;;;;;;;;;;;;;20.66;76.22;100720.84;7281585;19;154173;-59
2022/09/07 09:12:57;;;;;;;;;;;;;;;20.59;75.98;100721.28;7276058;19;153490;-59
2022/09/07 09:15:34;;;;;;;;;;;;;;;20.60;76.33;100722.94;7280922;19;152334;-59
2022/09/07 09:18:12;;;;;;;;;;;;;;;20.69;75.97;100723.84;7282674;19;153052;-60
2022/09/07 09:20:51;;;;;;;;;;;;;;;20.75;75.60;100713.34;7279889;19;153289;-60
2022/09/07 09:23:29;;;;;;;;;;;;;;;20.84;74.68;100708.66;7289395;19;152311;-59
2022/09/07 09:26:11;;;;;;;;;;;;;;;20.81;75.05;100706.44;7277769;19;152784;-59
2022/09/07 09:28:38;;;;;;;;;;;;;;;20.84;74.84;100697.41;7280992;19;151709;-60
2022/09/07 09:31:05;;;;;;;;;;;;;;;20.90;74.53;100692.47;7279784;19;153321;-59
2022/09/07 09:33:31;;;;;;;;;;;;;;;20.81;74.92;100698.84;7280551;19;154925;-60
2022/09/07 09:35:59;;;;;;;;;;;;;;;20.81;74.78;100693.25;7280738;19;152496;-59
2022/09/07 09:38:29;;;;;;;;;;;;;;;20.82;74.33;100685.66;7281549;19;154041;-60
2022/09/07 09:40:57;;;;;;;;;;;;;;;20.86;74.47;100689.47;7281608;19;154656;-60
2022/09/07 09:43:25;;;;;;;;;;;;;;;20.98;73.45;100674.91;7287620;19;152119;-60
2022/09/07 09:45:59;;;;;;;;;;;;;;;20.94;74.03;100683.09;7294991;19;154154;-60
2022/09/07 09:48:41;;;;;;;;;;;;;;;20.90;72.46;100689.69;7287819;19;151733;-60
2022/09/07 09:51:14;;;;;;;;;;;;;;;20.89;71.80;100685.22;7286022;19;152901;-59
2022/09/07 09:54:06;;;;;;;;;;;;;;;20.95;71.63;100676.34;7286344;19;153291;-60
2022/09/07 09:56:37;;;;;;;;;;;;;;;20.99;71.69;100687.78;7284765;19;152289;-59
2022/09/07 09:59:19;;;;;;;;;;;;;;;21.02;70.96;100675.91;7285801;19;153714;-60
2022/09/07 10:02:24;;;;;;;;;;;;;;;21.01;71.08;100683.50;7286386;19;153361;-59
2022/09/07 10:05:26;;;;;;;;;;;;;;;20.95;70.71;100692.38;7285221;19;152125;-60
2022/09/07 10:07:53;;;;;;;;;;;;;;;20.94;70.51;100693.53;7293128;19;152245;-60
2022/09/07 10:10:20;;;;;;;;;;;;;;;20.91;70.50;100691.34;7287057;19;152730;-60
2022/09/07 10:12:46;;;;;;;;;;;;;;;20.95;71.37;100696.00;7283802;19;152990;-60
2022/09/07 10:15:35;;;;;;;;;;;;;;;20.86;72.82;100698.75;7284643;19;154184;-60
2022/09/07 10:18:16;;;;;;;;;;;;;;;20.81;74.46;100704.47;7287147;19;152063;-60
2022/09/07 10:20:42;;;;;;;;;;;;;;;20.78;75.43;100712.72;7286505;19;153901;-60
2022/09/07 10:23:19;;;;;;;;;;;;;;;20.77;76.39;100705.44;7287375;19;154268;-59
2022/09/07 10:25:46;;;;;;;;;;;;;;;20.80;77.83;100702.00;7283650;19;152328;-60
2022/09/07 10:28:14;;;;;;;;;;;;;;;20.80;78.82;100699.19;7286091;19;154119;-59
2022/09/07 10:30:59;;;;;;;;;;;;;;;20.85;77.49;100699.06;7292960;19;154622;-60
2022/09/07 10:33:35;;;;;;;;;;;;;;;20.82;77.51;100694.91;7287376;19;153629;-60
2022/09/07 10:36:16;;;;;;;;;;;;;;;20.95;77.00;100689.56;7283137;19;153507;-60
2022/09/07 10:39:03;;;;;;;;;;;;;;;20.96;76.84;100678.00;7286344;19;152042;-60
2022/09/07 10:41:42;;;;;;;;;;;;;;;20.96;75.70;100677.19;7283058;19;153072;-60
2022/09/07 10:44:19;;;;;;;;;;;;;;;21.01;76.57;100683.50;7282440;19;153102;-60
2022/09/07 10:46:55;;;;;;;;;;;;;;;21.05;76.30;100672.47;7286522;19;152189;-60
2022/09/07 10:49:31;;;;;;;;;;;;;;;21.05;75.96;100673.28;7286268;19;152942;-60
2022/09/07 10:52:07;;;;;;;;;;;;;;;21.04;76.87;100668.81;7279505;19;154219;-60
2022/09/07 10:54:47;;;;;;;;;;;;;;;21.07;76.27;100673.00;7293239;19;152615;-60
2022/09/07 10:57:24;;;;;;;;;;;;;;;21.06;76.61;100671.31;7281137;19;154251;-59
2022/09/07 11:00:12;;;;;;;;;;;;;;;21.07;76.83;100664.56;7285228;19;152586;-59
2022/09/07 11:02:42;;;;;;;;;;;;;;;21.10;76.02;100669.53;7285644;19;153308;-60
2022/09/07 11:05:55;;;;;;;;;;;;;;;21.10;75.90;100664.75;7280952;19;152696;-60
2022/09/07 11:08:32;;;;;;;;;;;;;;;21.17;76.28;100658.69;7284860;19;153666;-60
2022/09/07 11:11:41;;;;;;;;;;;;;;;21.18;76.26;100654.75;7281176;19;151953;-60
2022/09/07 11:14:30;;;;;;;;;;;;;;;21.16;76.78;100651.44;7284948;19;152534;-60
2022/09/07 11:17:01;;;;;;;;;;;;;;;21.21;76.16;100654.13;7282508;19;151802;-60
2022/09/07 11:19:28;;;;;;;;;;;;;;;21.22;76.15;100650.97;7291347;19;153297;-60
2022/09/07 11:22:11;;;;;;;;;;;;;;;21.23;75.97;100652.63;7285249;19;151982;-60
2022/09/07 11:24:42;;;;;;;;;;;;;;;21.27;75.85;100666.88;7285210;19;153602;-60
2022/09/07 11:27:15;;;;;;;;;;;;;;;21.26;74.96;100668.00;7281079;19;154274;-60
2022/09/07 11:29:46;;;;;;;;;;;;;;;21.26;75.21;100662.41;7284183;19;152519;-60
2022/09/07 11:32:21;;;;;;;;;;;;;;;21.21;75.57;100656.94;7283878;19;153126;-60
2022/09/07 11:35:04;;;;;;;;;;;;;;;21.18;75.75;100654.75;7282096;19;154023;-60
2022/09/07 11:37:31;;;;;;;;;;;;;;;21.25;75.64;100655.13;7282278;19;151975;-60
2022/09/07 11:40:02;;;;;;;;;;;;;;;21.30;75.19;100653.00;7286358;19;152823;-59
2022/09/07 11:42:38;;;;;;;;;;;;;;;21.36;74.23;100650.06;7285900;19;154557;-59
2022/09/07 11:45:14;;;;;;;;;;;;;;;21.40;74.34;100651.91;7285619;19;152873;-60
2022/09/07 11:47:46;;;;;;;;;;;;;;;21.40;74.22;100646.28;7280029;19;154644;-60
2022/09/07 11:50:27;;;;;;;;;;;;;;;21.41;74.40;100653.56;7283574;19;152732;-60
2022/09/07 11:52:57;;;;;;;;;;;;;;;21.44;74.27;100640.88;7281460;19;153490;-60
2022/09/07 11:55:30;;;;;;;;;;;;;;;21.38;74.63;100645.78;7283182;19;153674;-60
2022/09/07 11:58:18;;;;;;;;;;;;;;;21.42;74.35;100644.00;7281007;19;152454;-60
2022/09/07 12:00:46;;;;;;;;;;;;;;;21.47;73.72;100643.03;7282873;19;153754;-60
2022/09/07 12:03:43;;;;;;;;;;;;;;;21.45;72.17;100643.34;7283019;19;153998;-60
2022/09/07 12:06:10;;;;;;;;;;;;;;;21.52;71.02;100638.09;7285777;19;152489;-60
2022/09/07 12:08:55;;;;;;;;;;;;;;;21.51;70.75;100633.63;7282234;19;152463;-59
2022/09/07 12:11:23;;;;;;;;;;;;;;;21.50;70.53;100639.56;7279709;19;152154;-59
2022/09/07 12:13:56;;;;;;;;;;;;;;;21.53;70.71;100633.31;7283263;19;153796;-60
2022/09/07 12:16:28;;;;;;;;;;;;;;;21.51;70.26;100633.63;7282174;19;154238;-60
2022/09/07 12:19:04;;;;;;;;;;;;;;;21.47;69.80;100629.81;7283630;19;152574;-59
2022/09/07 12:21:40;;;;;;;;;;;;;;;21.49;69.70;100640.72;7281119;19;153851;-60
2022/09/07 12:24:24;;;;;;;;;;;;;;;21.50;70.20;100640.41;7283995;19;154279;-60
2022/09/07 12:26:51;;;;;;;;;;;;;;;21.48;69.78;100631.47;7287555;19;152446;-60
2022/09/07 12:29:23;;;;;;;;;;;;;;;21.49;69.31;100627.50;7281341;19;154098;-60
2022/09/07 12:31:56;;;;;;;;;;;;;;;21.48;69.58;100637.09;7282370;19;151797;-60
2022/09/07 12:34:33;;;;;;;;;;;;;;;21.43;69.97;100650.44;7282389;19;153016;-59
2022/09/07 12:37:00;;;;;;;;;;;;;;;21.41;73.35;100647.94;7239176;19;153423;-59
2022/09/07 12:39:28;;;;;;;;;;;;;;;21.39;79.31;100649.44;7272891;19;151891;-59
2022/09/07 12:42:03;;;;;;;;;;;;;;;21.38;79.22;100639.34;7278641;19;153994;-59
2022/09/07 12:45:15;;;;;;;;;;;;;;;21.41;81.17;100621.81;7280818;19;154337;-60
2022/09/07 12:47:58;;;;;;;;;;;;;;;21.50;79.86;100629.16;7281961;19;152536;-60
2022/09/07 12:50:31;;;;;;;;;;;;;;;21.46;82.95;100632.94;7287637;19;154520;-60
2022/09/07 12:53:23;;;;;;;;;;;;;;;21.52;79.63;100628.84;7277392;19;153284;-60
2022/09/07 12:56:08;;;;;;;;;;;;;;;21.59;79.39;100626.38;7279698;19;154240;-59
2022/09/07 12:58:54;;;;;;;;;;;;;;;21.56;82.04;100622.25;7278869;19;154238;-60